Time;durP1;ratioP1;P1;durP2;ratioP2;P2;SDS_P1;SDS_P2;PMS_P1;PMS_P2;Temp;Humidity;BMP_temperature;BMP_pressure;BME280_temperature;BME280_humidity;BME280_pressure;Samples;Min_cycle;Max_cycle;Signal;HPM_P1;HPM_P2
2024/01/02 00:00:21;;;;;;;8.33;2.03;;;8.30;99.90;;;;;;5048899;28;20526;-78
2024/01/02 00:02:49;;;;;;;5.60;1.37;;;8.30;99.90;;;;;;5052828;28;20488;-78
2024/01/02 00:05:16;;;;;;;9.07;1.83;;;8.30;99.90;;;;;;5064365;28;20564;-73
2024/01/02 00:07:43;;;;;;;10.63;2.83;;;8.20;99.90;;;;;;5029431;28;20500;-75
2024/01/02 00:10:10;;;;;;;4.43;1.33;;;8.20;99.90;;;;;;5050672;28;20577;-75
2024/01/02 00:12:38;;;;;;;7.60;2.17;;;8.10;99.90;;;;;;5056314;28;20628;-73
2024/01/02 00:15:06;;;;;;;5.60;0.90;;;8.10;99.90;;;;;;5056661;28;20481;-77
2024/01/02 00:17:33;;;;;;;8.60;2.10;;;8.00;99.90;;;;;;5022187;28;20666;-69
2024/01/02 00:20:02;;;;;;;6.37;1.73;;;8.00;99.90;;;;;;5054419;28;20980;-79
2024/01/02 00:22:29;;;;;;;2.53;1.20;;;8.00;99.90;;;;;;5057659;28;21008;-77
2024/01/02 00:25:06;;;;;;;4.70;2.40;;;7.80;99.90;;;;;;5059523;28;20936;-73
2024/01/02 00:27:33;;;;;;;17.80;2.50;;;7.80;99.90;;;;;;5044071;28;20510;-75
2024/01/02 00:30:00;;;;;;;3.07;1.10;;;7.90;99.90;;;;;;5003744;28;20621;-75
2024/01/02 00:32:27;;;;;;;2.37;2.17;;;7.90;99.90;;;;;;5066429;28;21065;-71
2024/01/02 00:34:53;;;;;;;8.73;3.13;;;7.90;99.90;;;;;;5054348;28;21028;-74
2024/01/02 00:37:22;;;;;;;3.33;1.87;;;7.90;99.90;;;;;;5035297;28;20491;-74
2024/01/02 00:39:49;;;;;;;2.47;1.20;;;7.90;99.90;;;;;;5055588;28;20482;-76
2024/01/02 00:42:16;;;;;;;8.43;1.70;;;8.00;99.90;;;;;;5042497;28;20561;-71
2024/01/02 00:44:43;;;;;;;4.07;2.33;;;7.90;99.90;;;;;;5038888;28;21301;-78
2024/01/02 00:47:10;;;;;;;3.70;1.77;;;7.90;99.90;;;;;;5040490;28;20479;-75
2024/01/02 00:49:36;;;;;;;2.80;2.40;;;8.00;99.90;;;;;;5035588;28;20479;-72
2024/01/02 00:52:04;;;;;;;3.20;2.10;;;7.80;99.90;;;;;;5046808;28;20485;-71
2024/01/02 00:54:32;;;;;;;13.70;2.77;;;7.90;99.90;;;;;;5046648;28;20506;-71
2024/01/02 00:56:59;;;;;;;2.03;1.80;;;7.90;99.90;;;;;;5037158;28;20510;-75
2024/01/02 00:59:26;;;;;;;10.80;2.07;;;7.90;99.90;;;;;;5033900;28;20503;-69
2024/01/02 01:01:52;;;;;;;9.57;2.63;;;7.90;99.90;;;;;;5038011;28;20486;-74
2024/01/02 01:04:19;;;;;;;2.10;1.57;;;7.90;99.90;;;;;;5040171;28;20554;-70
2024/01/02 01:06:52;;;;;;;1.70;1.00;;;7.80;99.90;;;;;;5037642;28;20911;-78
2024/01/02 01:09:19;;;;;;;10.23;2.33;;;7.90;99.90;;;;;;5039699;28;20560;-70
2024/01/02 01:11:47;;;;;;;4.23;1.77;;;7.90;99.90;;;;;;5046877;28;20937;-72
2024/01/02 01:14:14;;;;;;;2.73;1.60;;;7.90;99.90;;;;;;5051978;28;20538;-78
2024/01/02 01:16:41;;;;;;;7.63;1.23;;;7.90;99.90;;;;;;5025033;28;20593;-74
2024/01/02 01:19:08;;;;;;;7.63;1.90;;;7.90;99.90;;;;;;5039242;28;20487;-73
2024/01/02 01:21:35;;;;;;;2.80;2.03;;;8.00;99.90;;;;;;5026935;28;20819;-72
2024/01/02 01:24:01;;;;;;;2.47;1.93;;;8.00;99.90;;;;;;5051263;28;21048;-71
2024/01/02 01:26:28;;;;;;;3.30;1.83;;;7.90;99.90;;;;;;5039698;28;20498;-74
2024/01/02 01:28:56;;;;;;;22.23;3.13;;;7.80;99.90;;;;;;5038269;28;20962;-71
2024/01/02 01:31:23;;;;;;;7.57;2.13;;;7.80;99.90;;;;;;5009547;28;20483;-72
2024/01/02 01:33:50;;;;;;;7.80;1.87;;;7.80;99.90;;;;;;5044799;28;20483;-78
2024/01/02 01:36:17;;;;;;;10.63;1.60;;;7.80;99.90;;;;;;5042440;28;21077;-73
2024/01/02 01:38:44;;;;;;;2.37;1.97;;;7.90;99.90;;;;;;5038095;28;20471;-72
2024/01/02 01:41:11;;;;;;;13.63;3.27;;;7.70;99.90;;;;;;5033189;28;21194;-83
2024/01/02 01:43:37;;;;;;;2.00;1.17;;;7.70;99.90;;;;;;5056181;28;20908;-80
2024/01/02 01:46:07;;;;;;;9.47;2.30;;;7.60;99.90;;;;;;5033141;28;20586;-74
2024/01/02 01:48:35;;;;;;;5.50;1.27;;;7.70;99.90;;;;;;5039501;28;20554;-72
2024/01/02 01:51:02;;;;;;;5.73;2.00;;;7.80;99.90;;;;;;5043526;28;20503;-75
2024/01/02 01:53:29;;;;;;;2.33;1.50;;;7.80;99.90;;;;;;5038318;28;20997;-72
2024/01/02 01:55:56;;;;;;;4.03;1.70;;;7.70;99.90;;;;;;5043371;28;20476;-77
2024/01/02 01:58:24;;;;;;;1.90;1.33;;;7.80;99.90;;;;;;5038593;28;20917;-76
2024/01/02 02:00:50;;;;;;;3.97;1.57;;;7.90;99.90;;;;;;5039585;28;20564;-72
2024/01/02 02:03:19;;;;;;;28.07;3.20;;;7.70;99.90;;;;;;5043750;28;20571;-75
2024/01/02 02:05:46;;;;;;;2.40;1.50;;;7.80;99.90;;;;;;5010149;28;20566;-78
2024/01/02 02:08:13;;;;;;;8.27;1.87;;;7.80;99.90;;;;;;5040473;28;20546;-71
2024/01/02 02:10:40;;;;;;;15.70;2.63;;;7.60;99.90;;;;;;5032400;28;20529;-76
2024/01/02 02:13:07;;;;;;;7.07;1.60;;;7.70;99.90;;;;;;5037072;28;20570;-75
2024/01/02 02:15:38;;;;;;;3.80;1.20;;;7.60;99.90;;;;;;5033932;28;20848;-78
2024/01/02 02:18:05;;;;;;;2.00;0.93;;;7.70;99.90;;;;;;5064126;28;20491;-73
2024/01/02 02:20:33;;;;;;;4.70;1.20;;;7.60;99.90;;;;;;5027498;28;20569;-74
2024/01/02 02:23:01;;;;;;;2.80;1.37;;;7.80;99.90;;;;;;5041401;28;20928;-79
2024/01/02 02:25:28;;;;;;;3.50;1.57;;;7.70;99.90;;;;;;4989578;28;20491;-75
2024/01/02 02:27:55;;;;;;;3.70;0.90;;;7.70;99.90;;;;;;5037894;28;20561;-73
2024/01/02 02:30:22;;;;;;;1.90;1.30;;;7.70;99.90;;;;;;5005285;28;20579;-73
2024/01/02 02:32:49;;;;;;;2.47;1.20;;;7.80;99.90;;;;;;5061128;28;20482;-75
2024/01/02 02:35:15;;;;;;;1.90;1.10;;;7.70;99.90;;;;;;5049144;28;20574;-73
2024/01/02 02:37:42;;;;;;;14.73;2.70;;;7.80;99.90;;;;;;5038164;28;20863;-78
2024/01/02 02:40:12;;;;;;;3.30;1.40;;;7.70;99.90;;;;;;5040407;28;21232;-72
2024/01/02 02:42:38;;;;;;;11.60;2.03;;;7.60;99.90;;;;;;5013349;28;20809;-79
2024/01/02 02:45:06;;;;;;;17.07;3.30;;;7.70;99.90;;;;;;5060767;28;20727;-75
2024/01/02 02:47:33;;;;;;;1.97;1.17;;;7.90;99.90;;;;;;5063191;28;20514;-75
2024/01/02 02:50:00;;;;;;;2.03;1.47;;;7.80;99.90;;;;;;5032783;28;20562;-75
2024/01/02 02:52:27;;;;;;;2.57;1.23;;;7.80;99.90;;;;;;5036669;28;20559;-77
2024/01/02 02:54:53;;;;;;;8.87;1.20;;;7.80;99.90;;;;;;5037088;28;20515;-74
2024/01/02 02:57:22;;;;;;;3.70;1.70;;;7.60;99.90;;;;;;5040667;28;20551;-70
2024/01/02 02:59:48;;;;;;;2.27;1.20;;;7.70;99.90;;;;;;5031775;28;20840;-77
2024/01/02 03:02:16;;;;;;;2.27;1.20;;;7.70;99.90;;;;;;5020021;28;20575;-72
2024/01/02 03:04:43;;;;;;;5.03;1.00;;;7.90;99.90;;;;;;5020383;28;20541;-74
2024/01/02 03:07:10;;;;;;;11.83;1.50;;;8.00;99.90;;;;;;5040992;28;20510;-74
2024/01/02 03:09:37;;;;;;;2.13;1.00;;;7.90;99.90;;;;;;5032847;28;20582;-75
2024/01/02 03:12:05;;;;;;;3.43;1.20;;;8.00;99.90;;;;;;5056908;28;20897;-76
2024/01/02 03:14:33;;;;;;;8.40;1.20;;;8.00;99.90;;;;;;5035829;28;20511;-77
2024/01/02 03:17:00;;;;;;;10.27;1.57;;;8.00;99.90;;;;;;5017195;28;20542;-74
2024/01/02 03:19:27;;;;;;;10.43;1.90;;;8.00;99.90;;;;;;5008531;28;20507;-72
2024/01/02 03:21:53;;;;;;;1.60;0.90;;;8.10;99.90;;;;;;5013007;28;20606;-74
2024/01/02 03:24:20;;;;;;;1.70;0.83;;;8.10;99.90;;;;;;5049219;28;20555;-77
2024/01/02 03:26:47;;;;;;;3.77;1.10;;;8.00;99.90;;;;;;5052861;28;20573;-73
2024/01/02 03:29:16;;;;;;;8.40;1.43;;;8.00;99.90;;;;;;5054875;28;20547;-73
2024/01/02 03:31:44;;;;;;;2.17;1.37;;;8.10;99.90;;;;;;5061629;28;22020;-75
2024/01/02 03:34:11;;;;;;;1.70;0.90;;;8.00;99.90;;;;;;5061141;28;20478;-79
2024/01/02 03:36:38;;;;;;;2.03;0.90;;;7.90;99.90;;;;;;5057598;28;20964;-76
2024/01/02 03:39:05;;;;;;;2.10;0.90;;;8.00;99.90;;;;;;5063623;28;20506;-76
2024/01/02 03:41:32;;;;;;;2.50;1.10;;;8.20;99.90;;;;;;5049805;28;21078;-74
2024/01/02 03:43:59;;;;;;;2.13;0.70;;;8.20;99.90;;;;;;5066941;28;21008;-74
2024/01/02 03:46:26;;;;;;;2.83;0.80;;;;;;;;;;5061160;28;21456;-75
2024/01/02 03:48:54;;;;;;;3.30;1.10;;;8.30;99.90;;;;;;5063597;28;20523;-76
2024/01/02 03:51:21;;;;;;;5.87;1.40;;;8.20;99.90;;;;;;5063616;28;20801;-74
2024/01/02 03:53:48;;;;;;;13.87;1.20;;;8.30;99.90;;;;;;5061315;28;20493;-71
2024/01/02 03:56:16;;;;;;;1.60;0.87;;;8.10;99.90;;;;;;5058259;28;20485;-74
2024/01/02 03:58:43;;;;;;;1.73;0.80;;;8.10;99.90;;;;;;5036245;28;20480;-71
2024/01/02 04:01:10;;;;;;;5.17;1.10;;;8.20;99.90;;;;;;5031798;28;20541;-72
2024/01/02 04:03:36;;;;;;;1.60;0.70;;;8.10;99.90;;;;;;5050219;28;20506;-74
2024/01/02 04:06:05;;;;;;;1.50;0.70;;;8.10;99.90;;;;;;5047619;28;20566;-71
2024/01/02 04:08:32;;;;;;;3.20;0.90;;;8.20;99.90;;;;;;5053683;28;20482;-73
2024/01/02 04:10:59;;;;;;;1.70;0.90;;;8.20;99.90;;;;;;5015339;28;21053;-74
2024/01/02 04:13:25;;;;;;;4.40;1.00;;;8.10;99.90;;;;;;5043731;28;20544;-75
2024/01/02 04:15:52;;;;;;;1.50;0.70;;;8.20;99.90;;;;;;5046667;28;20543;-78
2024/01/02 04:18:19;;;;;;;3.10;0.90;;;8.20;99.90;;;;;;5038245;28;20911;-71
2024/01/02 04:20:46;;;;;;;6.50;0.90;;;8.00;99.90;;;;;;5020814;28;20594;-69
2024/01/02 04:23:14;;;;;;;18.40;2.07;;;8.20;99.90;;;;;;5048895;28;20518;-70
2024/01/02 04:25:41;;;;;;;1.50;0.80;;;8.30;99.90;;;;;;5025058;28;20476;-72
2024/01/02 04:28:08;;;;;;;10.60;1.60;;;8.10;99.90;;;;;;5033397;28;20498;-75
2024/01/02 04:30:35;;;;;;;1.50;0.70;;;8.30;99.90;;;;;;5053990;28;20495;-77
2024/01/02 04:33:02;;;;;;;2.20;0.80;;;8.40;99.90;;;;;;5032765;28;21047;-70
2024/01/02 04:35:29;;;;;;;3.50;1.23;;;8.40;99.90;;;;;;5048565;28;20529;-73
2024/01/02 04:37:56;;;;;;;2.17;1.20;;;8.40;99.90;;;;;;5038533;28;21137;-69
2024/01/02 04:40:24;;;;;;;1.50;0.70;;;8.40;99.90;;;;;;5044163;28;20566;-71
2024/01/02 04:42:51;;;;;;;1.60;0.73;;;8.50;99.90;;;;;;5048057;28;20609;-69
2024/01/02 04:45:18;;;;;;;4.43;0.90;;;8.50;99.90;;;;;;5049168;28;20543;-68
2024/01/02 04:47:45;;;;;;;1.80;0.80;;;8.50;99.90;;;;;;5053334;28;20518;-70
2024/01/02 04:50:12;;;;;;;8.30;1.30;;;8.40;99.90;;;;;;5056483;28;20507;-70
2024/01/02 04:52:40;;;;;;;4.57;1.07;;;8.40;99.90;;;;;;5040412;28;20468;-69
2024/01/02 04:55:07;;;;;;;4.17;1.00;;;8.50;99.90;;;;;;5041990;28;20947;-72
2024/01/02 04:57:35;;;;;;;1.50;0.70;;;8.50;99.90;;;;;;5041665;28;20527;-67
2024/01/02 05:00:02;;;;;;;1.50;0.60;;;8.50;99.90;;;;;;5050308;28;21017;-68
2024/01/02 05:02:29;;;;;;;24.10;2.17;;;8.60;99.90;;;;;;5054597;28;21523;-73
2024/01/02 05:04:55;;;;;;;2.10;0.87;;;8.60;99.90;;;;;;5040306;28;20499;-68
2024/01/02 05:07:22;;;;;;;2.27;1.00;;;8.60;99.90;;;;;;5036987;28;20516;-71
2024/01/02 05:09:49;;;;;;;26.67;2.20;;;8.50;99.90;;;;;;5040759;28;20542;-68
2024/01/02 05:12:17;;;;;;;1.97;1.00;;;8.60;99.90;;;;;;5040635;28;20550;-70
2024/01/02 05:14:45;;;;;;;1.70;0.80;;;8.70;99.90;;;;;;5034984;28;20566;-71
2024/01/02 05:17:13;;;;;;;7.13;1.77;;;8.40;99.90;;;;;;5013875;28;21067;-69
2024/01/02 05:19:39;;;;;;;3.93;0.70;;;8.60;99.90;;;;;;5054044;28;20479;-68
2024/01/02 05:22:06;;;;;;;1.60;0.93;;;8.70;99.90;;;;;;5027084;28;20559;-69
2024/01/02 05:24:33;;;;;;;10.60;1.20;;;8.80;99.90;;;;;;5053509;28;21024;-67
2024/01/02 05:27:00;;;;;;;4.03;0.80;;;8.70;99.90;;;;;;5060079;28;21029;-69
2024/01/02 05:29:26;;;;;;;4.30;0.90;;;8.70;99.90;;;;;;5047793;28;20504;-71
2024/01/02 05:31:55;;;;;;;1.90;1.00;;;8.60;99.90;;;;;;5028493;28;20571;-71
2024/01/02 05:34:22;;;;;;;4.03;0.80;;;8.60;99.90;;;;;;5031927;28;21140;-69
2024/01/02 05:36:48;;;;;;;14.27;1.73;;;8.70;99.90;;;;;;5053771;28;20585;-66
2024/01/02 05:39:15;;;;;;;5.33;0.90;;;8.70;99.90;;;;;;5035488;28;20488;-72
2024/01/02 05:41:42;;;;;;;6.70;1.10;;;8.70;99.90;;;;;;5031583;28;20580;-72
2024/01/02 05:44:09;;;;;;;7.00;1.20;;;8.70;99.90;;;;;;5000721;28;20522;-68
2024/01/02 05:46:36;;;;;;;1.60;0.87;;;8.90;99.90;;;;;;5047539;28;20553;-67
2024/01/02 05:49:04;;;;;;;4.13;0.90;;;8.80;99.90;;;;;;5039234;28;20574;-69
2024/01/02 05:51:31;;;;;;;4.70;1.10;;;8.80;99.90;;;;;;5037172;28;20582;-68
2024/01/02 05:53:59;;;;;;;1.80;0.70;;;8.70;99.90;;;;;;5037399;28;20579;-66
2024/01/02 05:56:26;;;;;;;1.83;0.90;;;8.80;99.90;;;;;;5037746;28;21207;-73
2024/01/02 05:58:53;;;;;;;6.37;1.13;;;8.80;99.90;;;;;;5033976;28;20559;-69
2024/01/02 06:01:20;;;;;;;1.70;0.80;;;8.90;99.90;;;;;;5032910;28;20507;-68
2024/01/02 06:03:47;;;;;;;3.30;0.87;;;8.90;99.90;;;;;;5014028;28;20641;-69
2024/01/02 06:06:15;;;;;;;1.83;0.90;;;8.90;99.90;;;;;;5054804;28;20490;-69
2024/01/02 06:08:42;;;;;;;2.23;0.93;;;8.90;99.90;;;;;;5056119;28;20562;-67
2024/01/02 06:11:09;;;;;;;24.67;2.13;;;8.80;99.90;;;;;;5059229;28;20479;-66
2024/01/02 06:13:36;;;;;;;1.67;0.83;;;8.80;99.90;;;;;;5055231;28;20482;-67
2024/01/02 06:16:03;;;;;;;7.27;0.90;;;8.80;99.90;;;;;;5031685;28;20570;-67
2024/01/02 06:18:30;;;;;;;4.93;1.23;;;8.80;99.90;;;;;;5022553;28;20946;-70
2024/01/02 06:20:57;;;;;;;2.57;0.97;;;8.80;99.90;;;;;;5036198;28;21036;-66
2024/01/02 06:23:26;;;;;;;6.00;1.10;;;8.80;99.90;;;;;;5039465;28;21347;-69
2024/01/02 06:25:53;;;;;;;3.63;1.10;;;8.80;99.90;;;;;;5034010;28;20519;-69
2024/01/02 06:28:19;;;;;;;5.43;1.17;;;8.90;99.90;;;;;;5044011;28;20501;-67
2024/01/02 06:30:46;;;;;;;7.30;3.00;;;8.70;99.90;;;;;;5049249;28;20614;-67
2024/01/02 06:33:13;;;;;;;1.53;0.60;;;8.80;99.90;;;;;;5051280;28;20504;-68
2024/01/02 06:35:41;;;;;;;4.50;1.13;;;8.80;99.90;;;;;;5059115;28;20539;-67
2024/01/02 06:38:08;;;;;;;2.30;1.10;;;8.80;99.90;;;;;;5031225;28;20489;-67
2024/01/02 06:40:37;;;;;;;2.30;1.20;;;8.80;99.90;;;;;;5049579;28;20483;-68
2024/01/02 06:43:04;;;;;;;2.53;0.93;;;8.80;99.90;;;;;;5024558;28;21036;-68
2024/01/02 06:45:31;;;;;;;25.43;2.33;;;8.60;99.90;;;;;;5042500;28;20826;-69
2024/01/02 06:47:58;;;;;;;1.53;0.80;;;8.70;99.90;;;;;;5041363;28;20545;-68
2024/01/02 06:50:25;;;;;;;10.63;2.03;;;8.50;99.90;;;;;;5033112;28;20503;-69
2024/01/02 06:52:53;;;;;;;5.73;1.00;;;8.60;99.90;;;;;;5025942;28;20555;-66
2024/01/02 06:55:19;;;;;;;4.20;0.90;;;8.60;99.90;;;;;;5039248;28;20484;-67
2024/01/02 06:57:48;;;;;;;2.57;1.07;;;8.60;99.90;;;;;;5039702;28;20574;-67
2024/01/02 07:00:15;;;;;;;1.60;0.60;;;8.80;99.90;;;;;;5036122;28;20540;-67
2024/01/02 07:02:43;;;;;;;2.00;1.10;;;8.80;99.90;;;;;;5042740;28;20555;-69
2024/01/02 07:05:13;;;;;;;6.53;1.07;;;8.80;99.90;;;;;;5040419;28;20596;-65
2024/01/02 07:07:40;;;;;;;1.90;1.30;;;8.80;99.90;;;;;;5038061;28;20503;-72
2024/01/02 07:10:08;;;;;;;2.50;0.90;;;8.80;99.90;;;;;;5043793;28;20920;-68
2024/01/02 07:12:34;;;;;;;1.67;0.93;;;8.90;99.90;;;;;;5041257;28;20638;-71
2024/01/02 07:15:04;;;;;;;4.13;1.00;;;8.80;99.90;;;;;;5048186;28;20557;-70
2024/01/02 07:17:31;;;;;;;4.17;0.70;;;8.90;99.90;;;;;;5042367;28;20499;-72
2024/01/02 07:19:59;;;;;;;18.83;2.10;;;;;;;;;;5044277;28;20563;-68
2024/01/02 07:22:27;;;;;;;1.80;1.30;;;8.70;99.90;;;;;;5042174;28;20484;-72
2024/01/02 07:24:54;;;;;;;5.70;1.20;;;8.80;99.90;;;;;;5045783;28;20483;-70
2024/01/02 07:27:23;;;;;;;8.80;1.57;;;;;;;;;;5012373;28;20985;-70
2024/01/02 07:29:50;;;;;;;2.03;1.00;;;8.80;99.90;;;;;;5054687;28;20991;-70
2024/01/02 07:32:18;;;;;;;2.10;0.90;;;8.90;99.90;;;;;;5042328;28;20463;-70
2024/01/02 07:34:45;;;;;;;17.73;1.53;;;8.90;99.90;;;;;;5041963;28;20507;-68
2024/01/02 07:37:12;;;;;;;1.80;0.60;;;8.90;99.90;;;;;;5037407;28;20967;-69
2024/01/02 07:39:39;;;;;;;1.80;0.77;;;8.90;99.90;;;;;;5048140;28;20551;-70
2024/01/02 07:42:08;;;;;;;1.70;0.90;;;8.70;99.90;;;;;;5044487;28;22077;-66
2024/01/02 07:44:34;;;;;;;2.20;1.27;;;8.80;99.90;;;;;;5047878;28;20490;-69
2024/01/02 07:47:01;;;;;;;4.47;1.57;;;8.80;99.90;;;;;;5003038;28;20954;-68
2024/01/02 07:49:30;;;;;;;1.67;0.80;;;8.80;99.90;;;;;;5049591;28;20597;-70
2024/01/02 07:51:56;;;;;;;1.90;0.83;;;8.90;99.90;;;;;;5038508;28;21007;-70
2024/01/02 07:54:24;;;;;;;18.67;1.93;;;;;;;;;;5039247;28;20464;-69
2024/01/02 07:56:50;;;;;;;3.83;0.90;;;8.90;99.90;;;;;;5036798;28;20895;-73
2024/01/02 07:59:19;;;;;;;8.10;1.37;;;8.90;99.90;;;;;;5022484;28;20565;-71
2024/01/02 08:01:47;;;;;;;4.33;1.00;;;8.80;99.90;;;;;;5033974;28;20492;-68
2024/01/02 08:04:14;;;;;;;1.90;1.03;;;8.80;99.90;;;;;;5033598;28;20583;-67
2024/01/02 08:06:42;;;;;;;1.50;0.70;;;8.80;99.90;;;;;;5031071;28;20578;-69
2024/01/02 08:09:09;;;;;;;2.63;1.10;;;8.80;99.90;;;;;;5022590;28;20807;-69
2024/01/02 08:11:37;;;;;;;7.43;1.13;;;8.70;99.90;;;;;;5044133;28;20518;-69
2024/01/02 08:14:04;;;;;;;1.57;0.80;;;8.80;99.90;;;;;;4982631;28;20706;-71
2024/01/02 08:16:32;;;;;;;1.77;0.80;;;8.80;99.90;;;;;;5005684;28;20589;-69
2024/01/02 08:18:58;;;;;;;1.83;0.93;;;8.90;99.90;;;;;;5025057;28;20475;-73
2024/01/02 08:21:26;;;;;;;4.27;1.07;;;8.80;99.90;;;;;;5033506;28;20959;-71
2024/01/02 08:23:54;;;;;;;1.83;0.90;;;8.90;99.90;;;;;;5038963;28;20475;-68
2024/01/02 08:26:21;;;;;;;1.70;0.83;;;8.90;99.90;;;;;;5030716;28;20944;-69
2024/01/02 08:28:48;;;;;;;1.70;0.80;;;9.00;99.90;;;;;;5043318;28;20514;-71
2024/01/02 08:31:15;;;;;;;1.70;0.77;;;9.00;99.90;;;;;;5023455;28;20921;-70
2024/01/02 08:33:41;;;;;;;5.77;1.07;;;8.90;99.90;;;;;;5001722;28;20487;-70
2024/01/02 08:36:11;;;;;;;11.43;1.60;;;8.90;99.90;;;;;;5013166;28;20589;-70
2024/01/02 08:38:38;;;;;;;1.63;0.80;;;8.90;99.90;;;;;;5030028;28;21873;-67
2024/01/02 08:41:06;;;;;;;3.40;0.70;;;9.00;99.90;;;;;;5032892;28;20577;-73
2024/01/02 08:43:33;;;;;;;5.37;1.13;;;8.80;99.90;;;;;;5024766;28;20483;-68
2024/01/02 08:45:59;;;;;;;6.00;1.10;;;8.90;99.90;;;;;;5049873;28;20566;-68
2024/01/02 08:48:26;;;;;;;4.07;1.00;;;8.80;99.90;;;;;;5061087;28;20508;-72
2024/01/02 08:50:53;;;;;;;1.80;0.83;;;8.80;99.90;;;;;;5056269;28;20491;-68
2024/01/02 08:53:20;;;;;;;3.90;0.80;;;9.00;99.90;;;;;;5054770;28;20574;-72
2024/01/02 08:55:47;;;;;;;1.60;0.70;;;8.80;99.90;;;;;;5036913;28;20548;-70
2024/01/02 08:58:15;;;;;;;1.70;1.03;;;8.80;99.90;;;;;;5054890;28;21103;-68
2024/01/02 09:00:42;;;;;;;1.97;0.90;;;9.00;99.90;;;;;;5058381;28;20609;-70
2024/01/02 09:03:09;;;;;;;3.60;0.90;;;;;;;;;;5041522;28;20985;-68
2024/01/02 09:05:37;;;;;;;1.60;0.90;;;8.90;99.90;;;;;;5045765;28;20487;-70
2024/01/02 09:08:05;;;;;;;2.20;0.60;;;9.00;99.90;;;;;;5052071;28;20507;-72
2024/01/02 09:10:31;;;;;;;10.73;1.23;;;8.90;99.90;;;;;;5052687;28;20501;-72
2024/01/02 09:12:58;;;;;;;1.70;0.80;;;8.90;99.90;;;;;;5028461;28;20500;-69
2024/01/02 09:15:26;;;;;;;1.70;0.80;;;8.90;99.90;;;;;;5039201;28;20553;-69
2024/01/02 09:17:53;;;;;;;2.60;0.80;;;9.00;99.90;;;;;;5056855;28;21088;-70
2024/01/02 09:20:20;;;;;;;7.53;1.27;;;8.90;99.90;;;;;;5054568;28;20459;-67
2024/01/02 09:22:46;;;;;;;1.57;0.70;;;8.90;99.90;;;;;;5007449;28;20485;-67
2024/01/02 09:25:16;;;;;;;2.23;0.80;;;9.00;99.90;;;;;;5023507;28;21030;-69
2024/01/02 09:27:45;;;;;;;3.30;0.80;;;9.00;99.90;;;;;;5043996;28;20680;-71
2024/01/02 09:30:14;;;;;;;1.70;0.60;;;9.00;99.90;;;;;;5034848;28;20504;-69
2024/01/02 09:32:43;;;;;;;1.60;0.80;;;9.00;99.90;;;;;;5040982;28;20876;-70
2024/01/02 09:35:10;;;;;;;1.50;0.70;;;9.00;99.90;;;;;;5036386;28;20845;-68
2024/01/02 09:37:37;;;;;;;32.67;2.50;;;9.00;99.90;;;;;;5047486;28;20478;-70
2024/01/02 09:40:15;;;;;;;1.83;1.03;;;8.80;99.90;;;;;;5050247;28;20487;-69
2024/01/02 09:42:51;;;;;;;1.60;0.80;;;8.90;99.90;;;;;;5047333;28;20485;-70
2024/01/02 09:45:24;;;;;;;10.20;1.40;;;;;;;;;;5027273;28;20896;-74
2024/01/02 09:48:08;;;;;;;8.67;1.17;;;9.10;99.90;;;;;;5042490;28;20491;-71
2024/01/02 09:50:45;;;;;;;4.13;0.70;;;9.00;99.90;;;;;;5036305;28;20475;-68
2024/01/02 10:00:05;;;;;;;7.90;1.00;;;9.10;99.90;;;;;;4994000;28;20474;-70
2024/01/02 10:02:54;;;;;;;1.50;0.70;;;9.10;99.90;;;;;;5015812;28;20487;-71
2024/01/02 10:05:38;;;;;;;17.03;1.77;;;9.00;99.90;;;;;;5045257;28;20471;-70
2024/01/02 10:08:26;;;;;;;1.53;0.80;;;9.10;99.90;;;;;;5037053;28;20995;-72
2024/01/02 10:11:08;;;;;;;2.13;0.80;;;9.00;99.90;;;;;;5029306;28;20480;-72
2024/01/02 10:13:47;;;;;;;7.70;0.90;;;9.20;99.90;;;;;;5017038;28;20577;-74
2024/01/02 10:16:28;;;;;;;1.50;0.60;;;9.10;99.90;;;;;;5041143;28;20493;-68
2024/01/02 10:19:03;;;;;;;10.10;1.47;;;9.10;99.90;;;;;;5050112;28;20474;-72
2024/01/02 10:21:42;;;;;;;2.20;1.27;;;9.10;99.90;;;;;;5036432;28;20527;-68
2024/01/02 10:24:24;;;;;;;1.90;0.87;;;9.10;99.90;;;;;;5050429;28;20477;-68
2024/01/02 10:26:56;;;;;;;10.23;1.17;;;;;;;;;;5049439;28;20478;-67
2024/01/02 10:29:32;;;;;;;3.20;0.60;;;9.00;99.90;;;;;;5028680;28;20467;-70
2024/01/02 10:32:08;;;;;;;1.50;0.70;;;9.00;99.90;;;;;;5025163;28;20532;-72
2024/01/02 10:34:37;;;;;;;2.00;0.80;;;9.10;99.90;;;;;;5044639;28;20475;-73
2024/01/02 10:37:07;;;;;;;4.73;0.90;;;9.00;99.90;;;;;;5052242;28;21004;-68
2024/01/02 10:39:40;;;;;;;26.97;1.80;;;9.10;99.90;;;;;;5047805;28;21044;-69
2024/01/02 10:42:26;;;;;;;1.53;0.70;;;9.10;99.90;;;;;;5055475;28;20561;-68
2024/01/02 10:45:03;;;;;;;1.90;0.60;;;9.30;99.90;;;;;;5041417;28;20553;-69
2024/01/02 10:47:38;;;;;;;6.30;1.07;;;9.30;99.90;;;;;;5039555;28;20474;-73
2024/01/02 10:50:08;;;;;;;1.60;0.80;;;9.30;99.90;;;;;;5063282;28;20500;-71
2024/01/02 10:52:47;;;;;;;1.60;0.70;;;9.30;99.90;;;;;;5042249;28;20486;-67
2024/01/02 10:55:21;;;;;;;2.43;0.70;;;9.10;99.90;;;;;;5037960;28;20530;-72
2024/01/02 10:57:58;;;;;;;1.50;0.80;;;9.30;99.90;;;;;;5025492;28;20517;-68
2024/01/02 11:00:29;;;;;;;19.50;1.77;;;9.30;99.90;;;;;;5031962;28;21010;-70
2024/01/02 11:03:04;;;;;;;1.60;0.70;;;9.30;99.90;;;;;;5002779;28;20904;-68
2024/01/02 11:05:38;;;;;;;1.60;0.73;;;9.30;99.90;;;;;;5033256;28;20478;-72
2024/01/02 11:08:13;;;;;;;23.10;1.87;;;9.30;99.90;;;;;;4989145;28;20999;-71
2024/01/02 11:10:49;;;;;;;1.50;0.80;;;9.30;99.90;;;;;;5012926;28;20467;-70
2024/01/02 11:13:18;;;;;;;4.30;0.90;;;9.40;99.90;;;;;;4996868;28;20517;-67
2024/01/02 11:15:47;;;;;;;1.70;0.80;;;9.30;99.90;;;;;;5043420;28;21307;-70
2024/01/02 11:18:15;;;;;;;2.20;0.80;;;9.40;99.90;;;;;;5047302;28;20602;-70
2024/01/02 11:20:50;;;;;;;3.43;0.83;;;9.30;99.90;;;;;;5019503;28;20482;-68
2024/01/02 11:23:20;;;;;;;3.23;1.00;;;9.40;99.90;;;;;;5051569;28;20654;-68
2024/01/02 11:25:55;;;;;;;8.87;1.00;;;9.40;99.90;;;;;;5030817;28;20479;-70
2024/01/02 11:28:24;;;;;;;12.73;1.80;;;9.30;99.90;;;;;;5041172;28;20543;-70
2024/01/02 11:30:52;;;;;;;1.50;0.70;;;9.30;99.90;;;;;;5051304;28;20486;-70
2024/01/02 11:33:27;;;;;;;4.43;1.30;;;9.40;99.90;;;;;;5045417;28;21012;-69
2024/01/02 11:36:09;;;;;;;1.57;0.70;;;9.40;99.90;;;;;;5055773;28;20518;-71
2024/01/02 11:38:49;;;;;;;1.70;0.80;;;9.40;99.90;;;;;;5044541;28;20486;-71
2024/01/02 11:41:26;;;;;;;1.60;0.70;;;9.20;99.90;;;;;;5031637;28;20467;-70
2024/01/02 11:43:57;;;;;;;9.33;1.17;;;9.20;99.90;;;;;;5021126;28;20529;-70
2024/01/02 11:46:26;;;;;;;35.87;2.50;;;9.30;99.90;;;;;;5031753;28;21427;-73
2024/01/02 11:49:07;;;;;;;9.13;1.17;;;9.20;99.90;;;;;;5030293;28;20476;-70
2024/01/02 11:51:36;;;;;;;1.60;0.70;;;9.40;99.90;;;;;;5035281;28;20552;-69
2024/01/02 11:54:24;;;;;;;1.50;0.60;;;9.30;99.90;;;;;;5058727;28;20524;-68
2024/01/02 11:56:52;;;;;;;8.60;1.10;;;9.50;99.90;;;;;;5039590;28;20994;-72
2024/01/02 11:59:26;;;;;;;1.80;0.90;;;9.30;99.90;;;;;;5046689;28;20523;-70
2024/01/02 12:02:03;;;;;;;1.57;0.80;;;9.20;99.90;;;;;;5025887;28;20927;-70
2024/01/02 12:04:43;;;;;;;7.57;1.03;;;9.30;99.90;;;;;;5054862;28;20478;-68
2024/01/02 12:07:13;;;;;;;8.50;1.20;;;9.20;99.90;;;;;;5039183;28;20478;-71
2024/01/02 12:09:46;;;;;;;8.83;1.20;;;9.30;99.90;;;;;;5062585;28;20996;-72
2024/01/02 12:12:26;;;;;;;1.50;0.80;;;9.40;99.90;;;;;;5033435;28;21224;-71
2024/01/02 12:15:03;;;;;;;4.43;0.87;;;9.30;99.90;;;;;;5046646;28;20996;-68
2024/01/02 12:17:35;;;;;;;10.73;1.37;;;9.30;99.90;;;;;;5045238;28;20959;-70
2024/01/02 12:20:05;;;;;;;1.57;0.70;;;9.40;99.90;;;;;;5042406;28;20827;-71
2024/01/02 12:22:33;;;;;;;2.47;0.70;;;;;;;;;;5044688;28;20468;-72
2024/01/02 12:25:05;;;;;;;18.43;2.20;;;9.30;99.90;;;;;;5036412;28;20523;-70
2024/01/02 12:27:34;;;;;;;1.63;0.67;;;9.30;99.90;;;;;;5004477;28;20486;-69
2024/01/02 12:30:05;;;;;;;9.90;1.10;;;9.40;99.90;;;;;;5037482;28;20483;-71
2024/01/02 12:32:48;;;;;;;4.13;0.90;;;9.30;99.90;;;;;;5043284;28;20527;-69
2024/01/02 12:35:26;;;;;;;2.37;0.90;;;9.30;99.90;;;;;;5047262;28;20482;-71
2024/01/02 12:38:10;;;;;;;1.50;0.63;;;9.30;99.90;;;;;;5027931;28;20556;-71
2024/01/02 12:40:43;;;;;;;1.63;0.80;;;9.40;99.90;;;;;;5040779;28;20887;-70
2024/01/02 12:43:13;;;;;;;1.70;0.80;;;9.40;99.90;;;;;;5049790;28;20479;-69
2024/01/02 12:45:47;;;;;;;1.57;0.70;;;9.40;99.90;;;;;;5020723;28;20556;-70
2024/01/02 12:48:21;;;;;;;1.70;0.90;;;9.40;99.90;;;;;;5052237;28;20562;-71
2024/01/02 12:50:51;;;;;;;4.07;1.00;;;9.40;99.90;;;;;;5041619;28;20867;-73
2024/01/02 12:53:20;;;;;;;2.07;0.73;;;9.50;99.90;;;;;;5044146;28;20464;-68
2024/01/02 12:55:54;;;;;;;10.50;1.10;;;9.40;99.90;;;;;;5034254;28;20483;-70
2024/01/02 12:58:24;;;;;;;2.90;0.83;;;9.60;99.90;;;;;;5009604;28;20470;-68
2024/01/02 13:00:51;;;;;;;1.50;0.80;;;9.50;99.90;;;;;;5039255;28;20834;-71
2024/01/02 13:03:19;;;;;;;1.63;0.80;;;9.40;99.90;;;;;;5030962;28;20515;-72
2024/01/02 13:05:47;;;;;;;10.30;1.17;;;9.40;99.90;;;;;;5034180;28;20533;-70
2024/01/02 13:08:17;;;;;;;1.60;0.70;;;9.40;99.90;;;;;;5023195;28;20490;-70
2024/01/02 13:10:44;;;;;;;1.70;0.80;;;9.50;99.90;;;;;;5037413;28;21489;-70
2024/01/02 13:13:13;;;;;;;5.83;1.20;;;9.50;99.90;;;;;;5028410;28;20480;-70